sensor_id;sensor_type;location;lat;lon;timestamp;temperature;humidity
17887;DHT22;9069;52.044;7.472;2023-04-24T00:01:06;15.10;92.40
17887;DHT22;9069;52.044;7.472;2023-04-24T00:03:34;15.10;92.40
17887;DHT22;9069;52.044;7.472;2023-04-24T00:06:01;15.10;92.40
17887;DHT22;9069;52.044;7.472;2023-04-24T00:08:29;15.10;92.50
17887;DHT22;9069;52.044;7.472;2023-04-24T00:10:56;15.10;92.60
17887;DHT22;9069;52.044;7.472;2023-04-24T00:13:23;15.10;92.60
17887;DHT22;9069;52.044;7.472;2023-04-24T00:15:51;15.20;92.90
17887;DHT22;9069;52.044;7.472;2023-04-24T00:18:18;15.10;92.60
17887;DHT22;9069;52.044;7.472;2023-04-24T00:20:44;15.10;92.50
17887;DHT22;9069;52.044;7.472;2023-04-24T00:23:11;15.10;92.40
17887;DHT22;9069;52.044;7.472;2023-04-24T00:25:38;15.10;92.40
17887;DHT22;9069;52.044;7.472;2023-04-24T00:28:05;15.10;92.40
17887;DHT22;9069;52.044;7.472;2023-04-24T00:30:32;15.10;92.40
17887;DHT22;9069;52.044;7.472;2023-04-24T00:32:59;15.10;92.40
17887;DHT22;9069;52.044;7.472;2023-04-24T00:35:26;15.10;92.30
17887;DHT22;9069;52.044;7.472;2023-04-24T00:37:52;15.10;92.20
17887;DHT22;9069;52.044;7.472;2023-04-24T00:40:19;15.10;92.20
17887;DHT22;9069;52.044;7.472;2023-04-24T00:42:46;15.10;92.20
17887;DHT22;9069;52.044;7.472;2023-04-24T00:45:13;15.10;92.20
17887;DHT22;9069;52.044;7.472;2023-04-24T00:47:41;15.10;92.10
17887;DHT22;9069;52.044;7.472;2023-04-24T00:50:08;15.10;92.10
17887;DHT22;9069;52.044;7.472;2023-04-24T00:52:35;15.10;91.90
17887;DHT22;9069;52.044;7.472;2023-04-24T00:55:02;15.10;91.80
17887;DHT22;9069;52.044;7.472;2023-04-24T00:57:30;15.10;91.70
17887;DHT22;9069;52.044;7.472;2023-04-24T00:59:57;15.10;91.70
17887;DHT22;9069;52.044;7.472;2023-04-24T01:02:24;15.10;91.70
17887;DHT22;9069;52.044;7.472;2023-04-24T01:04:52;15.10;91.60
17887;DHT22;9069;52.044;7.472;2023-04-24T01:07:20;15.20;91.50
17887;DHT22;9069;52.044;7.472;2023-04-24T01:09:48;15.10;91.50
17887;DHT22;9069;52.044;7.472;2023-04-24T01:12:15;15.10;91.40
17887;DHT22;9069;52.044;7.472;2023-04-24T01:14:44;15.10;91.40
17887;DHT22;9069;52.044;7.472;2023-04-24T01:17:11;15.10;91.20
17887;DHT22;9069;52.044;7.472;2023-04-24T01:19:38;15.10;91.00
17887;DHT22;9069;52.044;7.472;2023-04-24T01:22:14;15.10;91.10
17887;DHT22;9069;52.044;7.472;2023-04-24T01:24:42;15.10;91.30
17887;DHT22;9069;52.044;7.472;2023-04-24T01:27:11;15.10;91.00
17887;DHT22;9069;52.044;7.472;2023-04-24T01:29:38;15.10;91.00
17887;DHT22;9069;52.044;7.472;2023-04-24T01:32:06;15.10;91.00
17887;DHT22;9069;52.044;7.472;2023-04-24T01:34:33;15.10;91.20
17887;DHT22;9069;52.044;7.472;2023-04-24T01:37:01;15.10;90.80
17887;DHT22;9069;52.044;7.472;2023-04-24T01:39:27;15.10;90.80
17887;DHT22;9069;52.044;7.472;2023-04-24T01:41:55;15.10;90.70
17887;DHT22;9069;52.044;7.472;2023-04-24T01:44:23;15.10;90.70
17887;DHT22;9069;52.044;7.472;2023-04-24T01:46:50;15.10;90.70
17887;DHT22;9069;52.044;7.472;2023-04-24T01:49:17;15.10;90.60
17887;DHT22;9069;52.044;7.472;2023-04-24T01:51:44;15.10;90.50
17887;DHT22;9069;52.044;7.472;2023-04-24T01:54:12;15.10;90.50
17887;DHT22;9069;52.044;7.472;2023-04-24T01:56:41;15.10;90.50
17887;DHT22;9069;52.044;7.472;2023-04-24T01:59:10;15.10;90.50
17887;DHT22;9069;52.044;7.472;2023-04-24T02:01:37;15.10;90.50
17887;DHT22;9069;52.044;7.472;2023-04-24T02:04:06;15.10;90.40
17887;DHT22;9069;52.044;7.472;2023-04-24T02:06:34;15.10;90.30
17887;DHT22;9069;52.044;7.472;2023-04-24T02:09:02;15.00;90.30
17887;DHT22;9069;52.044;7.472;2023-04-24T02:11:29;15.00;90.20
17887;DHT22;9069;52.044;7.472;2023-04-24T02:13:57;15.00;90.20
17887;DHT22;9069;52.044;7.472;2023-04-24T02:16:23;15.00;90.20
17887;DHT22;9069;52.044;7.472;2023-04-24T02:18:51;15.00;90.20
17887;DHT22;9069;52.044;7.472;2023-04-24T02:21:18;15.00;90.10
17887;DHT22;9069;52.044;7.472;2023-04-24T02:23:44;15.00;90.00
17887;DHT22;9069;52.044;7.472;2023-04-24T02:26:12;15.00;90.10
17887;DHT22;9069;52.044;7.472;2023-04-24T02:28:39;15.00;90.10
17887;DHT22;9069;52.044;7.472;2023-04-24T02:31:06;15.00;90.10
17887;DHT22;9069;52.044;7.472;2023-04-24T02:33:33;14.90;90.10
17887;DHT22;9069;52.044;7.472;2023-04-24T02:35:59;14.90;90.10
17887;DHT22;9069;52.044;7.472;2023-04-24T02:38:26;14.90;90.00
17887;DHT22;9069;52.044;7.472;2023-04-24T02:40:53;14.90;90.00
17887;DHT22;9069;52.044;7.472;2023-04-24T02:43:20;14.90;90.00
17887;DHT22;9069;52.044;7.472;2023-04-24T02:45:48;14.90;90.00
17887;DHT22;9069;52.044;7.472;2023-04-24T02:48:15;14.90;90.10
17887;DHT22;9069;52.044;7.472;2023-04-24T02:50:42;14.90;90.00
17887;DHT22;9069;52.044;7.472;2023-04-24T02:53:08;14.90;89.90
17887;DHT22;9069;52.044;7.472;2023-04-24T02:55:35;14.90;89.90
17887;DHT22;9069;52.044;7.472;2023-04-24T02:58:02;14.80;89.90
17887;DHT22;9069;52.044;7.472;2023-04-24T03:00:29;14.80;90.00
17887;DHT22;9069;52.044;7.472;2023-04-24T03:02:56;14.80;89.90
17887;DHT22;9069;52.044;7.472;2023-04-24T03:05:23;14.80;89.80
17887;DHT22;9069;52.044;7.472;2023-04-24T03:07:50;14.80;90.30
17887;DHT22;9069;52.044;7.472;2023-04-24T03:10:20;14.70;90.10
17887;DHT22;9069;52.044;7.472;2023-04-24T03:12:49;14.70;90.00
17887;DHT22;9069;52.044;7.472;2023-04-24T03:15:17;14.70;90.00
17887;DHT22;9069;52.044;7.472;2023-04-24T03:17:44;14.70;90.00
17887;DHT22;9069;52.044;7.472;2023-04-24T03:20:11;14.60;90.10
17887;DHT22;9069;52.044;7.472;2023-04-24T03:22:38;14.60;90.10
17887;DHT22;9069;52.044;7.472;2023-04-24T03:25:07;14.60;90.30
17887;DHT22;9069;52.044;7.472;2023-04-24T03:27:36;14.60;90.50
17887;DHT22;9069;52.044;7.472;2023-04-24T03:30:11;14.60;90.60
17887;DHT22;9069;52.044;7.472;2023-04-24T03:32:46;14.60;90.70
17887;DHT22;9069;52.044;7.472;2023-04-24T03:35:18;14.50;90.90
17887;DHT22;9069;52.044;7.472;2023-04-24T03:37:45;14.50;90.90
17887;DHT22;9069;52.044;7.472;2023-04-24T03:40:38;14.50;91.00
17887;DHT22;9069;52.044;7.472;2023-04-24T03:43:15;14.50;91.10
17887;DHT22;9069;52.044;7.472;2023-04-24T03:45:41;14.40;91.10
17887;DHT22;9069;52.044;7.472;2023-04-24T03:48:09;14.40;91.10
17887;DHT22;9069;52.044;7.472;2023-04-24T03:50:36;14.40;91.20
17887;DHT22;9069;52.044;7.472;2023-04-24T03:53:04;14.40;91.30
17887;DHT22;9069;52.044;7.472;2023-04-24T03:55:36;14.40;91.40
17887;DHT22;9069;52.044;7.472;2023-04-24T03:58:03;14.30;91.40
17887;DHT22;9069;52.044;7.472;2023-04-24T04:00:29;14.30;91.50
17887;DHT22;9069;52.044;7.472;2023-04-24T04:03:18;14.30;91.60
17887;DHT22;9069;52.044;7.472;2023-04-24T04:05:45;14.40;91.60
17887;DHT22;9069;52.044;7.472;2023-04-24T04:08:12;14.30;91.60
17887;DHT22;9069;52.044;7.472;2023-04-24T04:10:39;14.30;91.70
17887;DHT22;9069;52.044;7.472;2023-04-24T04:13:05;14.20;91.70
17887;DHT22;9069;52.044;7.472;2023-04-24T04:15:33;14.20;91.80
17887;DHT22;9069;52.044;7.472;2023-04-24T04:18:00;14.20;91.90
17887;DHT22;9069;52.044;7.472;2023-04-24T04:20:28;14.20;92.00
17887;DHT22;9069;52.044;7.472;2023-04-24T04:22:54;14.20;92.00
17887;DHT22;9069;52.044;7.472;2023-04-24T04:25:33;14.20;92.10
17887;DHT22;9069;52.044;7.472;2023-04-24T04:27:59;14.20;92.10
17887;DHT22;9069;52.044;7.472;2023-04-24T04:30:27;14.20;92.10
17887;DHT22;9069;52.044;7.472;2023-04-24T04:33:01;14.20;92.10
17887;DHT22;9069;52.044;7.472;2023-04-24T04:35:30;14.20;92.10
17887;DHT22;9069;52.044;7.472;2023-04-24T04:37:57;14.20;92.10
17887;DHT22;9069;52.044;7.472;2023-04-24T04:40:42;14.10;92.10
17887;DHT22;9069;52.044;7.472;2023-04-24T04:43:11;14.10;92.10
17887;DHT22;9069;52.044;7.472;2023-04-24T04:45:43;14.10;92.20
17887;DHT22;9069;52.044;7.472;2023-04-24T04:48:40;14.10;92.30
17887;DHT22;9069;52.044;7.472;2023-04-24T04:51:07;14.10;92.30
17887;DHT22;9069;52.044;7.472;2023-04-24T04:53:34;14.10;92.40
17887;DHT22;9069;52.044;7.472;2023-04-24T04:56:01;14.10;92.50
17887;DHT22;9069;52.044;7.472;2023-04-24T04:58:35;14.10;92.50
17887;DHT22;9069;52.044;7.472;2023-04-24T05:01:03;14.10;92.50
17887;DHT22;9069;52.044;7.472;2023-04-24T05:03:35;14.10;92.70
17887;DHT22;9069;52.044;7.472;2023-04-24T05:06:06;14.10;92.70
17887;DHT22;9069;52.044;7.472;2023-04-24T05:08:36;14.10;92.80
17887;DHT22;9069;52.044;7.472;2023-04-24T05:11:06;14.10;92.90
17887;DHT22;9069;52.044;7.472;2023-04-24T05:13:33;14.10;92.90
17887;DHT22;9069;52.044;7.472;2023-04-24T05:16:27;14.10;92.90
17887;DHT22;9069;52.044;7.472;2023-04-24T05:18:54;14.10;92.80
17887;DHT22;9069;52.044;7.472;2023-04-24T05:21:27;14.20;92.90
17887;DHT22;9069;52.044;7.472;2023-04-24T05:23:54;14.20;92.80
17887;DHT22;9069;52.044;7.472;2023-04-24T05:26:43;14.20;92.90
17887;DHT22;9069;52.044;7.472;2023-04-24T05:29:11;14.20;92.80
17887;DHT22;9069;52.044;7.472;2023-04-24T05:31:38;14.20;92.70
17887;DHT22;9069;52.044;7.472;2023-04-24T05:34:05;14.20;92.60
17887;DHT22;9069;52.044;7.472;2023-04-24T05:36:32;14.20;92.70
17887;DHT22;9069;52.044;7.472;2023-04-24T05:38:59;14.20;92.60
17887;DHT22;9069;52.044;7.472;2023-04-24T05:41:25;14.20;92.60
17887;DHT22;9069;52.044;7.472;2023-04-24T05:43:52;14.20;92.60
17887;DHT22;9069;52.044;7.472;2023-04-24T05:46:20;14.30;92.60
17887;DHT22;9069;52.044;7.472;2023-04-24T05:48:47;14.20;92.60
17887;DHT22;9069;52.044;7.472;2023-04-24T05:51:13;14.20;92.60
17887;DHT22;9069;52.044;7.472;2023-04-24T05:53:40;14.20;92.50
17887;DHT22;9069;52.044;7.472;2023-04-24T05:56:07;14.20;92.40
17887;DHT22;9069;52.044;7.472;2023-04-24T05:58:35;14.20;92.40
17887;DHT22;9069;52.044;7.472;2023-04-24T06:01:01;14.20;92.30
17887;DHT22;9069;52.044;7.472;2023-04-24T06:03:29;14.20;92.30
17887;DHT22;9069;52.044;7.472;2023-04-24T06:05:56;14.20;92.30
17887;DHT22;9069;52.044;7.472;2023-04-24T06:08:24;14.20;92.20
17887;DHT22;9069;52.044;7.472;2023-04-24T06:10:52;14.20;92.20
17887;DHT22;9069;52.044;7.472;2023-04-24T06:13:21;14.20;92.20
17887;DHT22;9069;52.044;7.472;2023-04-24T06:16:23;14.20;92.20
17887;DHT22;9069;52.044;7.472;2023-04-24T06:18:56;14.20;92.00
17887;DHT22;9069;52.044;7.472;2023-04-24T06:21:23;14.30;92.00
17887;DHT22;9069;52.044;7.472;2023-04-24T06:23:50;14.20;92.00
17887;DHT22;9069;52.044;7.472;2023-04-24T06:26:17;14.20;92.00
17887;DHT22;9069;52.044;7.472;2023-04-24T06:28:44;14.20;92.00
17887;DHT22;9069;52.044;7.472;2023-04-24T06:31:10;14.30;92.10
17887;DHT22;9069;52.044;7.472;2023-04-24T06:33:38;14.20;92.00
17887;DHT22;9069;52.044;7.472;2023-04-24T06:36:05;14.20;92.00
17887;DHT22;9069;52.044;7.472;2023-04-24T06:38:31;14.30;92.10
17887;DHT22;9069;52.044;7.472;2023-04-24T06:40:58;14.30;92.10
17887;DHT22;9069;52.044;7.472;2023-04-24T06:43:25;14.30;92.10
17887;DHT22;9069;52.044;7.472;2023-04-24T06:45:52;14.30;92.10
17887;DHT22;9069;52.044;7.472;2023-04-24T06:48:19;14.30;92.10
17887;DHT22;9069;52.044;7.472;2023-04-24T06:50:45;14.30;92.00
17887;DHT22;9069;52.044;7.472;2023-04-24T06:53:13;14.40;92.10
17887;DHT22;9069;52.044;7.472;2023-04-24T06:55:40;14.40;92.10
17887;DHT22;9069;52.044;7.472;2023-04-24T06:58:07;14.40;92.10
17887;DHT22;9069;52.044;7.472;2023-04-24T07:00:34;14.40;92.20
17887;DHT22;9069;52.044;7.472;2023-04-24T07:03:01;14.50;92.30
17887;DHT22;9069;52.044;7.472;2023-04-24T07:05:29;14.50;92.20
17887;DHT22;9069;52.044;7.472;2023-04-24T07:07:56;14.50;92.00
17887;DHT22;9069;52.044;7.472;2023-04-24T07:10:24;14.60;91.90
17887;DHT22;9069;52.044;7.472;2023-04-24T07:12:53;14.60;91.80
17887;DHT22;9069;52.044;7.472;2023-04-24T07:15:20;14.60;91.60
17887;DHT22;9069;52.044;7.472;2023-04-24T07:17:47;14.60;91.60
17887;DHT22;9069;52.044;7.472;2023-04-24T07:20:14;14.60;91.60
17887;DHT22;9069;52.044;7.472;2023-04-24T07:22:41;14.60;91.70
17887;DHT22;9069;52.044;7.472;2023-04-24T07:25:08;14.60;91.70
17887;DHT22;9069;52.044;7.472;2023-04-24T07:27:35;14.60;91.80
17887;DHT22;9069;52.044;7.472;2023-04-24T07:30:03;14.60;91.70
17887;DHT22;9069;52.044;7.472;2023-04-24T07:32:30;14.60;91.80
17887;DHT22;9069;52.044;7.472;2023-04-24T07:34:57;14.60;91.90
17887;DHT22;9069;52.044;7.472;2023-04-24T07:37:24;14.50;91.80
17887;DHT22;9069;52.044;7.472;2023-04-24T07:39:50;14.50;92.00
17887;DHT22;9069;52.044;7.472;2023-04-24T07:42:17;14.50;92.20
17887;DHT22;9069;52.044;7.472;2023-04-24T07:44:44;14.50;92.30
17887;DHT22;9069;52.044;7.472;2023-04-24T07:47:12;14.50;92.40
17887;DHT22;9069;52.044;7.472;2023-04-24T07:49:39;14.50;92.50
17887;DHT22;9069;52.044;7.472;2023-04-24T07:52:05;14.50;92.50
17887;DHT22;9069;52.044;7.472;2023-04-24T07:54:32;14.50;92.40
17887;DHT22;9069;52.044;7.472;2023-04-24T07:56:59;14.50;92.40
17887;DHT22;9069;52.044;7.472;2023-04-24T07:59:27;14.50;92.30
17887;DHT22;9069;52.044;7.472;2023-04-24T08:01:53;14.50;92.20
17887;DHT22;9069;52.044;7.472;2023-04-24T08:04:21;14.50;92.10
17887;DHT22;9069;52.044;7.472;2023-04-24T08:06:48;14.40;92.20
17887;DHT22;9069;52.044;7.472;2023-04-24T08:09:15;14.40;92.20
17887;DHT22;9069;52.044;7.472;2023-04-24T08:11:41;14.40;92.20
17887;DHT22;9069;52.044;7.472;2023-04-24T08:14:08;14.40;92.20
17887;DHT22;9069;52.044;7.472;2023-04-24T08:16:35;14.50;92.20
17887;DHT22;9069;52.044;7.472;2023-04-24T08:19:02;14.40;92.20
17887;DHT22;9069;52.044;7.472;2023-04-24T08:21:28;14.40;92.20
17887;DHT22;9069;52.044;7.472;2023-04-24T08:23:55;14.40;92.20
17887;DHT22;9069;52.044;7.472;2023-04-24T08:26:22;14.40;92.30
17887;DHT22;9069;52.044;7.472;2023-04-24T08:28:49;14.30;92.40
17887;DHT22;9069;52.044;7.472;2023-04-24T08:31:16;14.30;92.40
17887;DHT22;9069;52.044;7.472;2023-04-24T08:33:42;14.30;92.50
17887;DHT22;9069;52.044;7.472;2023-04-24T08:36:11;14.30;92.50
17887;DHT22;9069;52.044;7.472;2023-04-24T08:38:38;14.30;92.60
17887;DHT22;9069;52.044;7.472;2023-04-24T08:41:07;14.30;92.90
17887;DHT22;9069;52.044;7.472;2023-04-24T08:43:37;14.30;92.50
17887;DHT22;9069;52.044;7.472;2023-04-24T08:46:05;14.30;92.60
17887;DHT22;9069;52.044;7.472;2023-04-24T08:48:38;14.30;92.60
17887;DHT22;9069;52.044;7.472;2023-04-24T08:51:07;14.30;92.60
17887;DHT22;9069;52.044;7.472;2023-04-24T08:53:35;14.40;92.70
17887;DHT22;9069;52.044;7.472;2023-04-24T08:56:02;14.40;92.70
17887;DHT22;9069;52.044;7.472;2023-04-24T08:58:31;14.40;92.80
17887;DHT22;9069;52.044;7.472;2023-04-24T09:00:58;14.40;92.90
17887;DHT22;9069;52.044;7.472;2023-04-24T09:03:27;14.40;92.90
17887;DHT22;9069;52.044;7.472;2023-04-24T09:05:55;14.40;93.00
17887;DHT22;9069;52.044;7.472;2023-04-24T09:08:25;14.40;93.10
17887;DHT22;9069;52.044;7.472;2023-04-24T09:10:52;14.40;93.20
17887;DHT22;9069;52.044;7.472;2023-04-24T09:13:20;14.40;93.10
17887;DHT22;9069;52.044;7.472;2023-04-24T09:15:47;14.40;93.10
17887;DHT22;9069;52.044;7.472;2023-04-24T09:18:14;14.40;93.20
17887;DHT22;9069;52.044;7.472;2023-04-24T09:21:08;14.40;93.20
17887;DHT22;9069;52.044;7.472;2023-04-24T09:23:36;14.40;93.50
17887;DHT22;9069;52.044;7.472;2023-04-24T09:26:03;14.40;93.20
17887;DHT22;9069;52.044;7.472;2023-04-24T09:28:36;14.30;93.30
17887;DHT22;9069;52.044;7.472;2023-04-24T09:31:13;14.30;93.50
17887;DHT22;9069;52.044;7.472;2023-04-24T09:33:54;14.30;93.40
17887;DHT22;9069;52.044;7.472;2023-04-24T09:36:27;14.30;93.80
17887;DHT22;9069;52.044;7.472;2023-04-24T09:38:58;14.20;93.80
17887;DHT22;9069;52.044;7.472;2023-04-24T09:41:25;14.20;93.90
17887;DHT22;9069;52.044;7.472;2023-04-24T09:43:54;14.20;93.80
17887;DHT22;9069;52.044;7.472;2023-04-24T09:46:29;14.20;94.00
17887;DHT22;9069;52.044;7.472;2023-04-24T09:48:57;14.10;94.20
17887;DHT22;9069;52.044;7.472;2023-04-24T09:51:34;14.20;94.00
17887;DHT22;9069;52.044;7.472;2023-04-24T09:54:04;14.10;94.30
17887;DHT22;9069;52.044;7.472;2023-04-24T09:56:34;14.10;94.00
17887;DHT22;9069;52.044;7.472;2023-04-24T09:59:05;14.10;94.20
17887;DHT22;9069;52.044;7.472;2023-04-24T10:01:33;14.10;94.40
17887;DHT22;9069;52.044;7.472;2023-04-24T10:04:00;14.10;94.40
17887;DHT22;9069;52.044;7.472;2023-04-24T10:06:34;14.10;94.40
17887;DHT22;9069;52.044;7.472;2023-04-24T10:09:01;14.10;94.70
17887;DHT22;9069;52.044;7.472;2023-04-24T10:11:29;14.10;94.50
17887;DHT22;9069;52.044;7.472;2023-04-24T10:13:57;14.10;94.60
17887;DHT22;9069;52.044;7.472;2023-04-24T10:16:24;14.10;94.60
17887;DHT22;9069;52.044;7.472;2023-04-24T10:18:54;14.10;94.80
17887;DHT22;9069;52.044;7.472;2023-04-24T10:21:22;14.10;94.90
17887;DHT22;9069;52.044;7.472;2023-04-24T10:23:49;14.10;94.90
17887;DHT22;9069;52.044;7.472;2023-04-24T10:26:17;14.10;94.90
17887;DHT22;9069;52.044;7.472;2023-04-24T10:28:46;14.10;94.90
17887;DHT22;9069;52.044;7.472;2023-04-24T10:31:14;14.10;94.90
17887;DHT22;9069;52.044;7.472;2023-04-24T10:33:42;14.10;94.70
17887;DHT22;9069;52.044;7.472;2023-04-24T10:36:10;14.10;94.60
17887;DHT22;9069;52.044;7.472;2023-04-24T10:38:40;14.10;94.60
17887;DHT22;9069;52.044;7.472;2023-04-24T10:41:12;14.10;94.70
17887;DHT22;9069;52.044;7.472;2023-04-24T10:44:08;14.10;94.70
17887;DHT22;9069;52.044;7.472;2023-04-24T10:46:37;14.10;94.80
17887;DHT22;9069;52.044;7.472;2023-04-24T10:49:06;14.00;94.50
17887;DHT22;9069;52.044;7.472;2023-04-24T10:51:48;14.00;94.50
17887;DHT22;9069;52.044;7.472;2023-04-24T10:59:47;14.00;94.60
17887;DHT22;9069;52.044;7.472;2023-04-24T11:02:15;13.90;94.40
17887;DHT22;9069;52.044;7.472;2023-04-24T11:04:42;13.90;94.40
17887;DHT22;9069;52.044;7.472;2023-04-24T11:07:10;13.90;94.50
17887;DHT22;9069;52.044;7.472;2023-04-24T11:09:38;13.80;94.50
17887;DHT22;9069;52.044;7.472;2023-04-24T11:12:11;13.80;94.60
17887;DHT22;9069;52.044;7.472;2023-04-24T11:17:36;13.80;95.10
17887;DHT22;9069;52.044;7.472;2023-04-24T11:20:09;13.80;95.10
17887;DHT22;9069;52.044;7.472;2023-04-24T11:22:53;13.80;94.90
17887;DHT22;9069;52.044;7.472;2023-04-24T11:25:21;13.80;94.90
17887;DHT22;9069;52.044;7.472;2023-04-24T11:27:49;13.80;94.90
17887;DHT22;9069;52.044;7.472;2023-04-24T11:30:20;13.90;95.10
17887;DHT22;9069;52.044;7.472;2023-04-24T11:32:49;13.80;95.30
17887;DHT22;9069;52.044;7.472;2023-04-24T11:35:21;13.80;95.20
17887;DHT22;9069;52.044;7.472;2023-04-24T11:37:54;13.90;95.50
17887;DHT22;9069;52.044;7.472;2023-04-24T11:40:24;13.90;95.50
17887;DHT22;9069;52.044;7.472;2023-04-24T11:42:52;13.90;95.80
17887;DHT22;9069;52.044;7.472;2023-04-24T11:45:23;13.90;95.50
17887;DHT22;9069;52.044;7.472;2023-04-24T11:47:50;14.00;95.60
17887;DHT22;9069;52.044;7.472;2023-04-24T11:50:19;14.00;95.50
17887;DHT22;9069;52.044;7.472;2023-04-24T11:52:47;14.00;95.50
17887;DHT22;9069;52.044;7.472;2023-04-24T11:57:45;14.10;95.30
17887;DHT22;9069;52.044;7.472;2023-04-24T12:00:27;14.10;95.30
17887;DHT22;9069;52.044;7.472;2023-04-24T12:03:08;14.10;95.10
17887;DHT22;9069;52.044;7.472;2023-04-24T12:05:36;14.10;95.00
17887;DHT22;9069;52.044;7.472;2023-04-24T12:08:03;14.10;94.70
17887;DHT22;9069;52.044;7.472;2023-04-24T12:10:32;14.00;94.60
17887;DHT22;9069;52.044;7.472;2023-04-24T12:12:59;14.00;94.60
17887;DHT22;9069;52.044;7.472;2023-04-24T12:15:27;14.00;94.40
17887;DHT22;9069;52.044;7.472;2023-04-24T12:17:55;13.90;94.50
17887;DHT22;9069;52.044;7.472;2023-04-24T12:20:28;13.90;94.50
17887;DHT22;9069;52.044;7.472;2023-04-24T12:22:57;13.80;94.70
17887;DHT22;9069;52.044;7.472;2023-04-24T12:25:26;13.80;94.70
17887;DHT22;9069;52.044;7.472;2023-04-24T12:27:55;13.80;94.70
17887;DHT22;9069;52.044;7.472;2023-04-24T12:30:26;13.70;94.80
17887;DHT22;9069;52.044;7.472;2023-04-24T12:32:57;13.80;95.00
17887;DHT22;9069;52.044;7.472;2023-04-24T12:35:26;13.70;95.00
17887;DHT22;9069;52.044;7.472;2023-04-24T12:37:54;13.70;95.00
17887;DHT22;9069;52.044;7.472;2023-04-24T12:40:21;13.70;95.10
17887;DHT22;9069;52.044;7.472;2023-04-24T12:42:50;13.80;95.30
17887;DHT22;9069;52.044;7.472;2023-04-24T12:45:19;13.80;95.40
17887;DHT22;9069;52.044;7.472;2023-04-24T12:47:46;13.90;95.30
17887;DHT22;9069;52.044;7.472;2023-04-24T12:50:15;13.90;95.20
17887;DHT22;9069;52.044;7.472;2023-04-24T12:52:43;14.00;95.10
17887;DHT22;9069;52.044;7.472;2023-04-24T12:55:10;14.00;95.10
17887;DHT22;9069;52.044;7.472;2023-04-24T12:57:39;14.10;95.00
17887;DHT22;9069;52.044;7.472;2023-04-24T13:00:07;14.10;94.90
17887;DHT22;9069;52.044;7.472;2023-04-24T13:02:34;14.20;95.00
17887;DHT22;9069;52.044;7.472;2023-04-24T13:05:02;14.20;94.80
17887;DHT22;9069;52.044;7.472;2023-04-24T13:07:29;14.30;94.70
17887;DHT22;9069;52.044;7.472;2023-04-24T13:09:56;14.30;94.60
17887;DHT22;9069;52.044;7.472;2023-04-24T13:12:24;14.40;94.60
17887;DHT22;9069;52.044;7.472;2023-04-24T13:14:52;14.40;94.30
17887;DHT22;9069;52.044;7.472;2023-04-24T13:17:19;14.40;94.10
17887;DHT22;9069;52.044;7.472;2023-04-24T13:22:27;14.50;93.60
17887;DHT22;9069;52.044;7.472;2023-04-24T13:24:54;14.50;93.60
17887;DHT22;9069;52.044;7.472;2023-04-24T13:27:21;14.60;93.60
17887;DHT22;9069;52.044;7.472;2023-04-24T13:29:48;14.50;93.40
17887;DHT22;9069;52.044;7.472;2023-04-24T13:32:15;14.50;93.20
17887;DHT22;9069;52.044;7.472;2023-04-24T13:34:42;14.50;93.10
17887;DHT22;9069;52.044;7.472;2023-04-24T13:37:09;14.50;93.00
17887;DHT22;9069;52.044;7.472;2023-04-24T13:39:36;14.50;92.90
17887;DHT22;9069;52.044;7.472;2023-04-24T13:42:03;14.40;92.60
17887;DHT22;9069;52.044;7.472;2023-04-24T13:44:31;14.50;92.40
17887;DHT22;9069;52.044;7.472;2023-04-24T13:46:57;14.50;92.30
17887;DHT22;9069;52.044;7.472;2023-04-24T13:49:25;14.40;92.40
17887;DHT22;9069;52.044;7.472;2023-04-24T13:51:53;14.40;92.40
17887;DHT22;9069;52.044;7.472;2023-04-24T13:54:20;14.30;92.50
17887;DHT22;9069;52.044;7.472;2023-04-24T13:56:46;14.30;92.50
17887;DHT22;9069;52.044;7.472;2023-04-24T13:59:13;14.30;92.70
17887;DHT22;9069;52.044;7.472;2023-04-24T14:01:40;14.40;92.70
17887;DHT22;9069;52.044;7.472;2023-04-24T14:04:07;14.30;92.70
17887;DHT22;9069;52.044;7.472;2023-04-24T14:06:34;14.30;92.50
17887;DHT22;9069;52.044;7.472;2023-04-24T14:09:00;14.30;92.30
17887;DHT22;9069;52.044;7.472;2023-04-24T14:11:27;14.30;92.10
17887;DHT22;9069;52.044;7.472;2023-04-24T14:13:55;14.30;92.10
17887;DHT22;9069;52.044;7.472;2023-04-24T14:16:24;14.30;92.30
17887;DHT22;9069;52.044;7.472;2023-04-24T14:18:51;14.30;92.60
17887;DHT22;9069;52.044;7.472;2023-04-24T14:21:18;14.30;92.70
17887;DHT22;9069;52.044;7.472;2023-04-24T14:23:45;14.30;92.70
17887;DHT22;9069;52.044;7.472;2023-04-24T14:26:12;14.30;92.70
17887;DHT22;9069;52.044;7.472;2023-04-24T14:28:39;14.30;92.60
17887;DHT22;9069;52.044;7.472;2023-04-24T14:31:06;14.30;92.50
17887;DHT22;9069;52.044;7.472;2023-04-24T14:33:32;14.30;92.40
17887;DHT22;9069;52.044;7.472;2023-04-24T14:35:59;14.40;92.30
17887;DHT22;9069;52.044;7.472;2023-04-24T14:38:26;14.40;92.20
17887;DHT22;9069;52.044;7.472;2023-04-24T14:40:53;14.40;92.30
17887;DHT22;9069;52.044;7.472;2023-04-24T14:43:22;14.40;92.10
17887;DHT22;9069;52.044;7.472;2023-04-24T14:45:49;14.40;91.90
17887;DHT22;9069;52.044;7.472;2023-04-24T14:48:16;14.40;91.70
17887;DHT22;9069;52.044;7.472;2023-04-24T14:50:44;14.40;91.70
17887;DHT22;9069;52.044;7.472;2023-04-24T14:53:11;14.40;92.10
17887;DHT22;9069;52.044;7.472;2023-04-24T14:55:38;14.40;91.80
17887;DHT22;9069;52.044;7.472;2023-04-24T14:58:05;14.30;91.80
17887;DHT22;9069;52.044;7.472;2023-04-24T15:00:31;14.30;91.70
17887;DHT22;9069;52.044;7.472;2023-04-24T15:03:00;14.30;91.70
17887;DHT22;9069;52.044;7.472;2023-04-24T15:05:27;14.30;91.80
17887;DHT22;9069;52.044;7.472;2023-04-24T15:07:54;14.20;91.90
17887;DHT22;9069;52.044;7.472;2023-04-24T15:10:21;14.20;91.90
17887;DHT22;9069;52.044;7.472;2023-04-24T15:12:49;14.20;92.00
17887;DHT22;9069;52.044;7.472;2023-04-24T15:15:16;14.20;92.00
17887;DHT22;9069;52.044;7.472;2023-04-24T15:17:42;14.20;92.10
17887;DHT22;9069;52.044;7.472;2023-04-24T15:20:09;14.20;92.30
17887;DHT22;9069;52.044;7.472;2023-04-24T15:22:36;14.20;92.20
17887;DHT22;9069;52.044;7.472;2023-04-24T15:25:03;14.20;92.00
17887;DHT22;9069;52.044;7.472;2023-04-24T15:27:44;14.20;92.00
17887;DHT22;9069;52.044;7.472;2023-04-24T15:30:11;14.20;91.90
17887;DHT22;9069;52.044;7.472;2023-04-24T15:32:38;14.20;92.00
17887;DHT22;9069;52.044;7.472;2023-04-24T15:35:06;14.20;91.90
17887;DHT22;9069;52.044;7.472;2023-04-24T15:37:36;14.20;91.80
17887;DHT22;9069;52.044;7.472;2023-04-24T15:40:04;14.10;91.70
17887;DHT22;9069;52.044;7.472;2023-04-24T15:42:33;14.10;91.60
17887;DHT22;9069;52.044;7.472;2023-04-24T15:44:59;14.10;91.40
17887;DHT22;9069;52.044;7.472;2023-04-24T15:47:26;14.10;91.40
17887;DHT22;9069;52.044;7.472;2023-04-24T15:49:53;14.00;91.50
17887;DHT22;9069;52.044;7.472;2023-04-24T15:52:20;14.00;91.60
17887;DHT22;9069;52.044;7.472;2023-04-24T15:54:47;14.00;91.60
17887;DHT22;9069;52.044;7.472;2023-04-24T15:57:14;14.00;91.90
17887;DHT22;9069;52.044;7.472;2023-04-24T15:59:41;14.00;91.70
17887;DHT22;9069;52.044;7.472;2023-04-24T16:02:12;14.00;91.70
17887;DHT22;9069;52.044;7.472;2023-04-24T16:04:49;14.00;91.30
17887;DHT22;9069;52.044;7.472;2023-04-24T16:07:16;14.00;91.30